createdAt,value
2018-02-02T00:00:42.336Z,21.83
2018-02-02T00:03:08.985Z,22.67
2018-02-02T00:05:35.644Z,15.98
2018-02-02T00:08:02.298Z,16.98
2018-02-02T00:10:28.942Z,18.45
2018-02-02T00:12:55.583Z,17.35
2018-02-02T00:15:22.261Z,16.48
2018-02-02T00:17:48.901Z,18.80
2018-02-02T00:20:15.558Z,17.58
2018-02-02T00:22:42.213Z,17.95
2018-02-02T00:25:08.853Z,16.25
2018-02-02T00:27:35.556Z,20.67
2018-02-02T00:30:02.208Z,17.73
2018-02-02T00:32:28.865Z,19.40
2018-02-02T00:34:55.500Z,17.05
2018-02-02T00:37:22.146Z,19.12
2018-02-02T00:39:48.786Z,20.10
2018-02-02T00:42:15.439Z,18.95
2018-02-02T00:44:42.081Z,16.95
2018-02-02T00:47:08.741Z,16.02
2018-02-02T00:49:35.389Z,16.98
2018-02-02T00:52:02.048Z,22.50
2018-02-02T00:54:28.684Z,18.27
2018-02-02T00:56:55.345Z,15.57
2018-02-02T00:59:22.004Z,18.80
2018-02-02T01:01:48.642Z,20.30
2018-02-02T01:04:15.281Z,16.65
2018-02-02T01:06:41.929Z,17.50
2018-02-02T01:09:08.621Z,17.05
2018-02-02T01:11:35.240Z,17.42
2018-02-02T01:14:01.876Z,18.10
2018-02-02T01:16:28.516Z,21.45
2018-02-02T01:18:55.223Z,17.25
2018-02-02T01:21:21.873Z,20.15
2018-02-02T01:23:48.512Z,14.43
2018-02-02T01:26:15.150Z,20.77
2018-02-02T01:28:41.789Z,16.98
2018-02-02T01:31:08.428Z,19.02
2018-02-02T01:33:35.069Z,18.08
2018-02-02T01:36:01.719Z,15.40
2018-02-02T01:38:28.379Z,16.27
2018-02-02T01:40:55.033Z,18.62
2018-02-02T01:43:21.699Z,16.17
2018-02-02T01:45:48.340Z,18.92
2018-02-02T01:48:20.797Z,17.83
2018-02-02T01:50:47.444Z,14.15
2018-02-02T01:53:14.110Z,18.70
2018-02-02T01:55:40.744Z,20.65
2018-02-02T01:58:07.382Z,16.75
2018-02-02T02:00:34.030Z,17.95
2018-02-02T02:03:00.673Z,19.02
2018-02-02T02:05:27.329Z,22.80
2018-02-02T02:07:53.974Z,18.75
2018-02-02T02:10:20.636Z,17.35
2018-02-02T02:12:47.292Z,18.42
2018-02-02T02:15:13.952Z,18.37
2018-02-02T02:17:40.595Z,19.80
2018-02-02T02:20:07.261Z,18.20
2018-02-02T02:22:33.906Z,24.27
2018-02-02T02:25:00.581Z,21.67
2018-02-02T02:27:27.231Z,17.08
2018-02-02T02:29:53.869Z,15.90
2018-02-02T02:32:20.510Z,19.52
2018-02-02T02:34:47.160Z,25.05
2018-02-02T02:37:13.815Z,16.95
2018-02-02T02:39:40.462Z,17.80
2018-02-02T02:42:07.121Z,21.20
2018-02-02T02:44:33.764Z,17.02
2018-02-02T02:47:00.426Z,16.60
2018-02-02T02:49:27.089Z,18.70
2018-02-02T02:51:53.753Z,15.50
2018-02-02T02:54:20.395Z,17.92
2018-02-02T02:56:47.057Z,17.98
2018-02-02T02:59:13.700Z,15.82
2018-02-02T03:01:40.364Z,16.77
2018-02-02T03:04:07.016Z,20.00
2018-02-02T03:06:33.678Z,13.80
2018-02-02T03:09:00.322Z,17.55
2018-02-02T03:11:26.991Z,15.45
2018-02-02T03:13:53.632Z,19.20
2018-02-02T03:16:20.290Z,14.93
2018-02-02T03:18:46.925Z,14.30
2018-02-02T03:21:13.587Z,19.37
2018-02-02T03:23:40.224Z,12.75
2018-02-02T03:26:06.877Z,13.77
2018-02-02T03:28:33.524Z,14.32
2018-02-02T03:31:00.204Z,16.12
2018-02-02T03:33:26.888Z,11.40
2018-02-02T03:35:53.583Z,9.60
2018-02-02T03:38:20.217Z,10.35
2018-02-02T03:40:46.860Z,11.25
2018-02-02T03:43:13.510Z,11.23
2018-02-02T03:45:40.141Z,9.48
2018-02-02T03:48:06.792Z,12.52
2018-02-02T03:50:33.443Z,14.90
2018-02-02T03:53:00.101Z,9.75
2018-02-02T03:55:26.764Z,12.45
2018-02-02T03:57:53.419Z,10.00
2018-02-02T04:00:20.052Z,8.65
2018-02-02T04:02:46.703Z,9.30
2018-02-02T04:05:13.576Z,9.45
2018-02-02T04:07:40.236Z,9.25
2018-02-02T04:10:06.882Z,10.10
2018-02-02T04:12:33.520Z,8.65
2018-02-02T04:15:00.216Z,12.20
2018-02-02T04:17:26.876Z,10.98
2018-02-02T04:19:53.533Z,12.15
2018-02-02T04:22:20.200Z,10.35
2018-02-02T04:24:46.840Z,12.82
2018-02-02T04:27:13.471Z,13.85
2018-02-02T04:29:40.114Z,10.60
2018-02-02T04:32:06.751Z,12.73
2018-02-02T04:34:33.421Z,10.88
2018-02-02T04:37:00.056Z,10.35
2018-02-02T04:39:26.746Z,13.25
2018-02-02T04:41:53.385Z,13.15
2018-02-02T04:44:20.055Z,9.45
2018-02-02T04:46:46.690Z,15.95
2018-02-02T04:49:13.332Z,13.05
2018-02-02T04:51:39.960Z,9.45
2018-02-02T04:54:06.613Z,10.15
2018-02-02T04:56:33.254Z,11.20
2018-02-02T04:58:59.902Z,9.82
2018-02-02T05:01:26.537Z,13.05
2018-02-02T05:03:53.189Z,11.63
2018-02-02T05:06:19.847Z,11.85
2018-02-02T05:08:46.499Z,10.15
2018-02-02T05:11:13.136Z,11.43
2018-02-02T05:13:39.996Z,13.55
2018-02-02T05:16:06.661Z,11.27
2018-02-02T05:18:33.312Z,9.90
2018-02-02T05:20:59.950Z,10.13
2018-02-02T05:23:26.609Z,10.95
2018-02-02T05:25:53.249Z,10.25
2018-02-02T05:28:19.892Z,10.25
2018-02-02T05:30:46.524Z,10.93
2018-02-02T05:33:13.162Z,10.88
2018-02-02T05:35:39.796Z,10.40
2018-02-02T05:38:06.441Z,11.65
2018-02-02T05:40:33.183Z,11.93
2018-02-02T05:42:59.829Z,14.20
2018-02-02T05:45:26.615Z,23.08
2018-02-02T05:47:53.261Z,14.10
2018-02-02T05:50:19.913Z,17.20
2018-02-02T05:52:46.683Z,17.35
2018-02-02T05:55:13.324Z,14.43
2018-02-02T05:57:39.960Z,17.37
2018-02-02T06:00:06.613Z,13.57
2018-02-02T06:02:33.262Z,12.25
2018-02-02T06:04:59.918Z,13.77
2018-02-02T06:07:26.555Z,14.70
2018-02-02T06:09:53.221Z,15.43
2018-02-02T06:12:19.855Z,10.80
2018-02-02T06:14:46.533Z,13.10
2018-02-02T06:17:13.534Z,11.32
2018-02-02T06:19:40.286Z,13.38
2018-02-02T06:22:06.934Z,11.73
2018-02-02T06:24:33.599Z,12.43
2018-02-02T06:27:00.242Z,13.65
2018-02-02T06:29:26.898Z,12.75
2018-02-02T06:31:53.552Z,14.45
2018-02-02T06:34:20.200Z,11.55
2018-02-02T06:36:46.854Z,16.95
2018-02-02T06:39:13.495Z,11.50
2018-02-02T06:41:40.131Z,11.77
2018-02-02T06:44:06.773Z,11.23
2018-02-02T06:46:33.412Z,14.35
2018-02-02T06:49:00.055Z,14.65
2018-02-02T06:51:26.721Z,15.88
2018-02-02T06:53:53.369Z,12.70
2018-02-02T06:56:20.032Z,12.00
2018-02-02T06:58:46.674Z,11.07
2018-02-02T07:01:13.309Z,9.93
2018-02-02T07:03:39.961Z,11.10
2018-02-02T07:06:06.608Z,12.32
2018-02-02T07:08:33.273Z,15.35
2018-02-02T07:10:59.920Z,12.00
2018-02-02T07:13:26.609Z,13.45
2018-02-02T07:15:53.262Z,13.05
2018-02-02T07:18:19.931Z,17.55
2018-02-02T07:20:46.573Z,14.90
2018-02-02T07:23:13.234Z,12.52
2018-02-02T07:25:39.886Z,13.35
2018-02-02T07:28:06.553Z,12.45
2018-02-02T07:30:33.204Z,12.37
2018-02-02T07:32:59.869Z,11.85
2018-02-02T07:35:26.516Z,12.75
2018-02-02T07:37:53.184Z,11.20
2018-02-02T07:40:19.823Z,12.40
2018-02-02T07:42:46.470Z,12.02
2018-02-02T07:45:13.108Z,10.82
2018-02-02T07:47:39.749Z,12.85
2018-02-02T07:50:06.404Z,11.85
2018-02-02T07:52:33.040Z,11.15
2018-02-02T07:54:59.678Z,12.63
2018-02-02T07:57:26.317Z,15.88
2018-02-02T07:59:52.981Z,12.63
2018-02-02T08:02:19.616Z,12.90
2018-02-02T08:04:46.276Z,15.15
2018-02-02T08:07:12.920Z,12.65
2018-02-02T08:09:39.583Z,13.25
2018-02-02T08:12:06.219Z,13.45
2018-02-02T08:14:32.869Z,10.95
2018-02-02T08:16:59.505Z,13.05
2018-02-02T08:19:26.167Z,12.90
2018-02-02T08:21:52.831Z,11.80
2018-02-02T08:24:19.499Z,12.23
2018-02-02T08:26:46.144Z,13.07
2018-02-02T08:29:12.830Z,11.88
2018-02-02T08:31:39.472Z,13.40
2018-02-02T08:34:06.137Z,11.90
2018-02-02T08:36:32.801Z,11.77
2018-02-02T08:38:59.437Z,14.18
2018-02-02T08:41:26.077Z,10.80
2018-02-02T08:43:52.767Z,11.25
2018-02-02T08:46:19.418Z,11.98
2018-02-02T08:48:46.080Z,10.13
2018-02-02T08:51:12.781Z,12.48
2018-02-02T08:53:39.420Z,11.73
2018-02-02T08:56:06.090Z,10.15
2018-02-02T08:58:32.737Z,12.82
2018-02-02T09:01:05.303Z,10.30
2018-02-02T09:03:31.960Z,10.68
2018-02-02T09:05:58.624Z,10.00
2018-02-02T09:08:25.267Z,15.15
2018-02-02T09:13:30.992Z,12.82
2018-02-02T09:15:57.669Z,9.68
2018-02-02T09:18:24.291Z,8.45
2018-02-02T09:20:50.915Z,9.32
2018-02-02T09:23:17.551Z,8.60
2018-02-02T09:25:44.179Z,8.15
2018-02-02T09:28:10.803Z,9.10
2018-02-02T09:30:37.505Z,10.30
2018-02-02T09:33:04.141Z,9.55
2018-02-02T09:35:30.758Z,9.38
2018-02-02T09:37:57.398Z,9.10
2018-02-02T09:40:24.022Z,9.60
2018-02-02T09:42:50.667Z,7.68
2018-02-02T09:45:17.279Z,7.78
2018-02-02T09:47:43.928Z,7.10
2018-02-02T09:50:10.554Z,8.50
2018-02-02T09:52:37.195Z,8.02
2018-02-02T09:55:03.831Z,8.32
2018-02-02T09:57:30.481Z,7.55
2018-02-02T09:59:57.123Z,6.90
2018-02-02T10:02:23.766Z,7.32
2018-02-02T10:04:50.397Z,9.52
2018-02-02T10:07:17.053Z,7.35
2018-02-02T10:09:43.688Z,5.50
2018-02-02T10:12:10.325Z,4.22
2018-02-02T10:14:36.943Z,3.85
2018-02-02T10:17:03.581Z,3.60
2018-02-02T10:19:30.216Z,4.25
2018-02-02T10:21:56.840Z,3.40
2018-02-02T10:24:23.479Z,3.70
2018-02-02T10:26:50.113Z,3.78
2018-02-02T10:29:16.727Z,3.95
2018-02-02T10:31:43.347Z,4.00
2018-02-02T10:34:09.967Z,3.97
2018-02-02T10:36:36.598Z,3.70
2018-02-02T10:39:03.222Z,3.40
2018-02-02T10:41:29.854Z,4.45
2018-02-02T10:43:56.473Z,3.47
2018-02-02T10:46:23.091Z,3.67
2018-02-02T10:48:49.736Z,3.20
2018-02-02T10:51:16.363Z,3.22
2018-02-02T10:53:43.002Z,3.50
2018-02-02T10:56:09.629Z,3.30
2018-02-02T10:58:36.259Z,3.50
2018-02-02T11:01:08.529Z,3.53
2018-02-02T11:03:40.826Z,3.30
2018-02-02T11:06:07.466Z,3.33
2018-02-02T11:08:34.084Z,3.62
2018-02-02T11:11:00.717Z,3.10
2018-02-02T11:13:27.379Z,3.05
2018-02-02T11:15:54.141Z,3.45
2018-02-02T11:18:20.980Z,3.47
2018-02-02T11:20:47.616Z,3.60
2018-02-02T11:23:14.271Z,4.05
2018-02-02T11:25:40.890Z,3.28
2018-02-02T11:28:07.862Z,3.58
2018-02-02T11:30:34.553Z,3.50
2018-02-02T11:33:01.172Z,3.92
2018-02-02T11:35:27.827Z,4.15
2018-02-02T11:37:54.447Z,3.90
2018-02-02T11:40:21.069Z,4.72
2018-02-02T11:42:47.695Z,4.40
2018-02-02T11:45:14.334Z,4.47
2018-02-02T11:47:40.967Z,4.60
2018-02-02T11:50:07.619Z,4.65
2018-02-02T11:52:34.275Z,4.93
2018-02-02T11:55:00.915Z,5.15
2018-02-02T11:57:27.565Z,4.60
2018-02-02T11:59:54.239Z,5.03
2018-02-02T12:02:20.863Z,5.12
2018-02-02T12:04:47.494Z,4.80
2018-02-02T12:07:14.146Z,5.75
2018-02-02T12:09:40.788Z,7.10
2018-02-02T12:12:07.424Z,6.93
2018-02-02T12:14:34.059Z,6.50
2018-02-02T12:17:00.706Z,7.60
2018-02-02T12:19:27.338Z,6.57
2018-02-02T12:21:54.941Z,8.65
2018-02-02T12:24:27.306Z,8.60
2018-02-02T12:26:59.875Z,7.28
2018-02-02T12:29:26.517Z,7.53
2018-02-02T12:31:53.146Z,7.50
2018-02-02T12:34:19.797Z,8.98
2018-02-02T12:36:46.424Z,8.25
2018-02-02T12:39:13.083Z,8.95
2018-02-02T12:41:39.714Z,9.25
2018-02-02T12:44:06.378Z,9.35
2018-02-02T12:46:33.023Z,10.13
2018-02-02T12:49:02.458Z,10.25
2018-02-02T12:51:29.103Z,8.65
2018-02-02T12:53:55.739Z,8.52
2018-02-02T12:56:22.388Z,9.93
2018-02-02T12:58:49.006Z,7.90
2018-02-02T13:01:15.716Z,7.62
2018-02-02T13:03:42.393Z,7.80
2018-02-02T13:06:09.120Z,8.65
2018-02-02T13:08:35.751Z,8.48
2018-02-02T13:11:02.382Z,7.97
2018-02-02T13:13:29.011Z,7.82
2018-02-02T13:15:55.642Z,7.45
2018-02-02T13:18:22.274Z,7.20
2018-02-02T13:20:48.911Z,7.57
2018-02-02T13:23:15.583Z,8.55
2018-02-02T13:25:42.206Z,7.57
2018-02-02T13:28:08.847Z,7.32
2018-02-02T13:30:35.495Z,7.00
2018-02-02T13:33:02.147Z,7.95
2018-02-02T13:35:28.813Z,7.72
2018-02-02T13:37:55.438Z,7.55
2018-02-02T13:40:22.054Z,8.57
2018-02-02T13:42:48.690Z,9.77
2018-02-02T13:45:15.319Z,8.50
2018-02-02T13:47:41.983Z,9.32
2018-02-02T13:50:08.612Z,8.18
2018-02-02T13:52:35.243Z,8.98
2018-02-02T13:55:01.906Z,9.30
2018-02-02T13:57:28.528Z,9.50
2018-02-02T13:59:55.169Z,8.88
2018-02-02T14:02:21.801Z,9.00
2018-02-02T14:04:48.432Z,9.20
2018-02-02T14:07:15.064Z,8.63
2018-02-02T14:09:41.686Z,9.52
2018-02-02T14:12:08.331Z,9.05
2018-02-02T14:14:34.987Z,9.43
2018-02-02T14:17:01.733Z,9.30
2018-02-02T14:19:28.401Z,10.18
2018-02-02T14:21:55.015Z,9.60
2018-02-02T14:24:21.659Z,9.55
2018-02-02T14:26:48.278Z,8.50
2018-02-02T14:29:14.934Z,10.05
2018-02-02T14:31:41.884Z,8.77
2018-02-02T14:34:08.565Z,9.43
2018-02-02T14:36:35.183Z,10.95
2018-02-02T14:39:01.873Z,10.13
2018-02-02T14:41:28.544Z,9.65
2018-02-02T14:43:55.275Z,10.20
2018-02-02T14:46:21.924Z,10.38
2018-02-02T14:48:48.835Z,11.60
2018-02-02T14:51:15.502Z,10.80
2018-02-02T14:53:42.176Z,10.00
2018-02-02T14:56:08.832Z,10.43
2018-02-02T14:58:35.490Z,9.60
2018-02-02T15:01:02.180Z,10.57
2018-02-02T15:03:28.815Z,11.00
2018-02-02T15:05:55.455Z,11.15
2018-02-02T15:08:22.089Z,10.93
2018-02-02T15:10:48.718Z,11.68
2018-02-02T15:13:15.360Z,11.20
2018-02-02T15:15:42.002Z,11.32
2018-02-02T15:18:09.450Z,11.35
2018-02-02T15:20:36.100Z,14.02
2018-02-02T15:23:20.414Z,10.68
2018-02-02T15:25:47.082Z,10.85
2018-02-02T15:28:13.726Z,10.95
2018-02-02T15:30:40.371Z,13.00
2018-02-02T15:33:06.999Z,16.35
2018-02-02T15:35:33.723Z,16.33
2018-02-02T15:38:00.370Z,10.73
2018-02-02T15:40:27.013Z,12.75
2018-02-02T15:42:53.691Z,12.82
2018-02-02T15:45:20.327Z,13.90
2018-02-02T15:47:46.954Z,11.50
2018-02-02T15:50:13.578Z,10.63
2018-02-02T15:52:40.202Z,12.88
2018-02-02T15:55:07.862Z,9.23
2018-02-02T15:57:34.495Z,10.38
2018-02-02T16:00:01.168Z,16.77
2018-02-02T16:02:27.820Z,11.38
2018-02-02T16:04:54.443Z,11.70
2018-02-02T16:07:21.261Z,9.98
2018-02-02T16:09:48.003Z,12.82
2018-02-02T16:12:14.645Z,15.05
2018-02-02T16:14:41.489Z,13.35
2018-02-02T16:17:08.496Z,12.90
2018-02-02T16:19:35.272Z,9.45
2018-02-02T16:22:02.040Z,12.20
2018-02-02T16:24:28.969Z,9.68
2018-02-02T16:26:55.860Z,9.45
2018-02-02T16:29:24.841Z,11.32
2018-02-02T16:31:51.639Z,9.82
2018-02-02T16:34:18.274Z,8.88
2018-02-02T16:36:44.934Z,10.05
2018-02-02T16:39:11.559Z,10.02
2018-02-02T16:41:38.228Z,8.77
2018-02-02T16:44:04.877Z,9.00
2018-02-02T16:46:31.530Z,9.23
2018-02-02T16:48:58.483Z,10.38
2018-02-02T16:51:25.204Z,12.32
2018-02-02T16:53:52.144Z,10.55
2018-02-02T16:56:18.843Z,10.50
2018-02-02T16:58:45.839Z,11.65
2018-02-02T17:01:13.782Z,10.60
2018-02-02T17:03:40.869Z,11.55
2018-02-02T17:06:07.841Z,11.35
2018-02-02T17:08:34.535Z,12.30
2018-02-02T17:11:01.177Z,12.57
2018-02-02T17:13:27.870Z,13.70
2018-02-02T17:15:54.525Z,13.15
2018-02-02T17:18:21.182Z,18.33
2018-02-02T17:20:47.826Z,15.43
2018-02-02T17:23:14.498Z,13.50
2018-02-02T17:25:41.140Z,13.40
2018-02-02T17:28:07.820Z,12.45
2018-02-02T17:30:34.461Z,15.57
2018-02-02T17:33:01.142Z,17.12
2018-02-02T17:35:27.780Z,16.73
2018-02-02T17:37:54.483Z,15.40
2018-02-02T17:40:21.154Z,17.70
2018-02-02T17:42:48.032Z,17.15
2018-02-02T17:45:14.736Z,19.80
2018-02-02T17:47:41.386Z,22.17
2018-02-02T17:50:08.055Z,24.90
2018-02-02T17:52:34.720Z,21.85
2018-02-02T17:55:01.363Z,15.60
2018-02-02T17:57:28.010Z,23.52
2018-02-02T17:59:54.726Z,20.50
2018-02-02T18:02:36.230Z,17.48
2018-02-02T18:05:02.883Z,17.30
2018-02-02T18:07:29.532Z,19.15
2018-02-02T18:09:56.202Z,16.25
2018-02-02T18:12:22.862Z,14.55
2018-02-02T18:14:49.527Z,16.52
2018-02-02T18:17:16.178Z,15.60
2018-02-02T18:19:42.807Z,15.63
2018-02-02T18:22:09.447Z,16.12
2018-02-02T18:24:36.096Z,16.25
2018-02-02T18:27:02.732Z,18.10
2018-02-02T18:29:29.381Z,16.33
2018-02-02T18:31:56.022Z,16.00
2018-02-02T18:34:22.739Z,17.08
2018-02-02T18:36:49.406Z,17.10
2018-02-02T18:39:16.047Z,17.98
2018-02-02T18:41:42.700Z,18.92
2018-02-02T18:44:09.425Z,18.02
2018-02-02T18:46:36.060Z,15.38
2018-02-02T18:49:02.715Z,11.15
2018-02-02T18:51:29.343Z,13.40
2018-02-02T18:53:56.023Z,11.32
2018-02-02T18:56:22.655Z,12.90
2018-02-02T18:58:49.279Z,11.48
2018-02-02T19:01:15.906Z,11.15
2018-02-02T19:03:42.566Z,11.05
2018-02-02T19:06:11.285Z,11.20
2018-02-02T19:08:37.912Z,11.10
2018-02-02T19:11:04.551Z,11.15
2018-02-02T19:13:31.194Z,11.05
2018-02-02T19:15:57.834Z,12.00
2018-02-02T19:18:24.467Z,13.25
2018-02-02T19:20:51.128Z,14.13
2018-02-02T19:23:17.762Z,13.93
2018-02-02T19:25:44.423Z,12.10
2018-02-02T19:28:11.084Z,12.40
2018-02-02T19:30:37.777Z,10.25
2018-02-02T19:33:04.394Z,11.38
2018-02-02T19:35:31.041Z,12.32
2018-02-02T19:37:57.687Z,10.00
2018-02-02T19:40:24.364Z,11.70
2018-02-02T19:42:50.999Z,10.80
2018-02-02T19:45:17.666Z,11.55
2018-02-02T19:47:44.302Z,10.07
2018-02-02T19:50:10.942Z,10.20
2018-02-02T19:52:37.583Z,12.60
2018-02-02T19:55:04.207Z,10.60
2018-02-02T19:57:31.007Z,9.95
2018-02-02T19:59:57.739Z,10.45
2018-02-02T20:02:24.461Z,10.45
2018-02-02T20:04:51.090Z,10.05
2018-02-02T20:07:17.742Z,12.40
2018-02-02T20:09:44.384Z,10.57
2018-02-02T20:12:11.040Z,10.25
2018-02-02T20:14:37.734Z,11.02
2018-02-02T20:17:04.394Z,11.30
2018-02-02T20:19:31.321Z,13.48
2018-02-02T20:21:58.577Z,11.12
2018-02-02T20:24:25.279Z,12.27
2018-02-02T20:26:51.956Z,11.15
2018-02-02T20:29:18.589Z,16.73
2018-02-02T20:31:45.242Z,11.15
2018-02-02T20:34:12.336Z,11.15
2018-02-02T20:36:39.198Z,13.48
2018-02-02T20:39:06.202Z,13.30
2018-02-02T20:41:33.224Z,12.75
2018-02-02T20:44:00.360Z,13.60
2018-02-02T20:46:27.183Z,12.43
2018-02-02T20:48:54.301Z,12.27
2018-02-02T20:51:22.043Z,15.70
2018-02-02T20:53:48.712Z,11.23
2018-02-02T20:56:15.367Z,13.20
2018-02-02T20:58:42.081Z,11.77
2018-02-02T21:01:08.763Z,11.25
2018-02-02T21:03:36.164Z,10.90
2018-02-02T21:06:03.586Z,10.98
2018-02-02T21:08:30.216Z,9.80
2018-02-02T21:10:56.847Z,10.85
2018-02-02T21:13:23.595Z,10.50
2018-02-02T21:15:50.450Z,10.73
2018-02-02T21:18:17.118Z,12.20
2018-02-02T21:20:43.759Z,10.70
2018-02-02T21:23:10.404Z,12.32
2018-02-02T21:25:37.035Z,13.52
2018-02-02T21:28:03.698Z,14.87
2018-02-02T21:30:30.351Z,11.70
2018-02-02T21:32:56.994Z,16.67
2018-02-02T21:35:23.627Z,13.23
2018-02-02T21:37:50.384Z,14.90
2018-02-02T21:40:16.959Z,15.95
2018-02-02T21:42:43.610Z,13.35
2018-02-02T21:45:10.239Z,16.00
2018-02-02T21:47:36.899Z,15.15
2018-02-02T21:50:03.546Z,12.02
2018-02-02T21:52:30.175Z,13.88
2018-02-02T21:54:56.811Z,13.00
2018-02-02T21:57:23.439Z,13.20
2018-02-02T21:59:50.070Z,12.77
2018-02-02T22:02:16.713Z,12.93
2018-02-02T22:04:43.351Z,12.85
2018-02-02T22:07:10.018Z,14.48
2018-02-02T22:09:36.650Z,18.08
2018-02-02T22:12:03.375Z,15.57
2018-02-02T22:14:30.052Z,20.60
2018-02-02T22:16:56.684Z,18.83
2018-02-02T22:19:23.386Z,15.10
2018-02-02T22:21:50.016Z,13.55
2018-02-02T22:24:16.724Z,17.37
2018-02-02T22:26:43.358Z,16.40
2018-02-02T22:29:10.017Z,15.98
2018-02-02T22:31:36.658Z,15.48
2018-02-02T22:34:03.313Z,18.27
2018-02-02T22:36:29.958Z,19.50
2018-02-02T22:38:56.610Z,19.65
2018-02-02T22:41:23.308Z,19.10
2018-02-02T22:43:49.959Z,18.62
2018-02-02T22:46:16.703Z,17.95
2018-02-02T22:48:43.343Z,18.33
2018-02-02T22:51:09.983Z,18.65
2018-02-02T22:53:36.660Z,19.67
2018-02-02T22:56:03.331Z,22.25
2018-02-02T22:58:30.111Z,21.27
2018-02-02T23:00:56.818Z,18.20
2018-02-02T23:03:23.447Z,21.23
2018-02-02T23:05:50.096Z,20.75
2018-02-02T23:08:16.719Z,21.33
2018-02-02T23:10:43.440Z,21.50
2018-02-02T23:13:10.091Z,20.00
2018-02-02T23:15:36.749Z,22.23
2018-02-02T23:18:03.389Z,18.60
2018-02-02T23:20:30.152Z,21.12
2018-02-02T23:22:56.822Z,20.12
2018-02-02T23:25:23.520Z,19.52
2018-02-02T23:27:50.192Z,19.73
2018-02-02T23:30:16.944Z,22.80
2018-02-02T23:32:43.716Z,24.98
2018-02-02T23:35:10.443Z,23.00
2018-02-02T23:37:37.136Z,18.73
2018-02-02T23:40:03.793Z,19.20
2018-02-02T23:42:30.569Z,20.15
2018-02-02T23:44:57.212Z,18.85
2018-02-02T23:47:23.877Z,23.73
2018-02-02T23:49:50.551Z,22.85
2018-02-02T23:52:17.193Z,20.08
2018-02-02T23:54:43.826Z,18.05
2018-02-02T23:57:10.472Z,18.12
2018-02-02T23:59:37.115Z,18.67
